Terminal Aerodrome Forecast
Issued by NWS

Home | Current Version | Previous Version | Text Only | Print | Product List | Glossary On
Versions: 1 2 3 4 5 6 7 8 9 10 11 12 13 14
000
FTUS44 KBMX 270500
TAFTOI
TAF
KTOI 270532Z 2706/2806 VRB04KT P6SM SKC
      TEMPO 2707/2710 BKN060
     FM271000 26004KT P6SM SCT015 SCT060
     FM271500 30009G18KT P6SM SCT035
     FM272300 33004KT P6SM SKC=

USA.gov is the U.S. government's official web portal to all federal, state and local government web resources and services.